Observation data for Muleshoe on 05/26/2019      Previous  Date  Next       Current Mesonet Observations  Soil Data  Daily Summary Page  Observations in Plain Language
KMUS 260500Z 17015KT 20/18 A2996 RMK A01 T02020178  RH  091%=      5-min Rain = 0
KMUS 260505Z 17016G21KT 20/18 A2996 RMK A01 T02020178  RH  090%=      5-min Rain = 0
KMUS 260510Z 18017G23KT 20/18 A2996 RMK A01 T02030177  RH  090%=      5-min Rain = 0
KMUS 260515Z 17019G24KT 20/18 A2996 RMK A01 T02030176  RH  089%=      5-min Rain = 0
KMUS 260520Z 18016G23KT 20/18 A2996 RMK A01 T02030175  RH  089%=      5-min Rain = 0
KMUS 260525Z 18018G25KT 20/18 A2996 RMK A01 T02020175  RH  089%=      5-min Rain = 0
KMUS 260530Z 18017G22KT 20/17 A2996 RMK A01 T02010174  RH  089%=      5-min Rain = 0
KMUS 260535Z 18017KT 20/17 A2996 RMK A01 T02010173  RH  088%=      5-min Rain = 0
KMUS 260540Z 18015KT 20/17 A2996 RMK A01 T02000172  RH  089%=      5-min Rain = 0
KMUS 260545Z 18015G20KT 20/17 A2995 RMK A01 T01990172  RH  089%=      5-min Rain = 0
KMUS 260550Z 18016G23KT 20/17 A2996 RMK A01 T01980171  RH  089%=      5-min Rain = 0
KMUS 260555Z 18016KT 20/17 A2996 RMK A01 T01970170  RH  089%=      5-min Rain = 0
KMUS 260600Z 18014KT 20/17 A2995 RMK A01 T01960170  RH  089%=      5-min Rain = 0
KMUS 260605Z 18014KT 20/17 A2995 RMK A01 T01950169  RH  090%=      5-min Rain = 0
KMUS 260610Z 18014KT 19/17 A2995 RMK A01 T01940169  RH  090%=      5-min Rain = 0
KMUS 260615Z 18014KT 19/17 A2996 RMK A01 T01930168  RH  090%=      5-min Rain = 0
KMUS 260620Z 18014KT 19/17 A2996 RMK A01 T01920167  RH  090%=      5-min Rain = 0
KMUS 260625Z 18013G18KT 19/17 A2996 RMK A01 T01920167  RH  090%=      5-min Rain = 0
KMUS 260630Z 18013KT 19/17 A2996 RMK A01 T01910167  RH  090%=      5-min Rain = 0
KMUS 260635Z 18013G18KT 19/17 A2996 RMK A01 T01900166  RH  090%=      5-min Rain = 0
KMUS 260640Z 17013KT 19/17 A2996 RMK A01 T01890166  RH  091%=      5-min Rain = 0
KMUS 260645Z 17013KT 19/17 A2996 RMK A01 T01890166  RH  091%=      5-min Rain = 0
KMUS 260650Z 17013KT 19/17 A2996 RMK A01 T01880165  RH  091%=      5-min Rain = 0
KMUS 260655Z 18013KT 19/17 A2996 RMK A01 T01870165  RH  091%=      5-min Rain = 0
KMUS 260700Z 18014KT 19/17 A2996 RMK A01 T01870165  RH  091%=      5-min Rain = 0
KMUS 260705Z 18013KT 19/16 A2996 RMK A01 T01870164  RH  091%=      5-min Rain = 0
KMUS 260710Z 18013KT 19/16 A2996 RMK A01 T01860164  RH  091%=      5-min Rain = 0
KMUS 260715Z 18013KT 19/16 A2996 RMK A01 T01850164  RH  092%=      5-min Rain = 0
KMUS 260720Z 18013KT 19/16 A2996 RMK A01 T01850164  RH  092%=      5-min Rain = 0
KMUS 260725Z 18014KT 19/16 A2996 RMK A01 T01860164  RH  091%=      5-min Rain = 0
KMUS 260730Z 18013KT 19/16 A2996 RMK A01 T01850163  RH  091%=      5-min Rain = 0
KMUS 260735Z 18013KT 18/16 A2995 RMK A01 T01840163  RH  092%=      5-min Rain = 0
KMUS 260740Z 18012KT 18/16 A2995 RMK A01 T01830163  RH  092%=      5-min Rain = 0
KMUS 260745Z 18012KT 18/16 A2995 RMK A01 T01830163  RH  092%=      5-min Rain = 0
KMUS 260750Z 18012KT 18/16 A2995 RMK A01 T01820162  RH  092%=      5-min Rain = 0
KMUS 260755Z 18012KT 18/16 A2995 RMK A01 T01810162  RH  093%=      5-min Rain = 0
KMUS 260800Z 18010KT 18/16 A2995 RMK A01 T01810161  RH  092%=      5-min Rain = 0
KMUS 260805Z 18011KT 18/16 A2995 RMK A01 T01810161  RH  093%=      5-min Rain = 0
KMUS 260810Z 18012KT 18/16 A2995 RMK A01 T01810161  RH  092%=      5-min Rain = 0
KMUS 260815Z 18010KT 18/16 A2995 RMK A01 T01810161  RH  092%=      5-min Rain = 0
KMUS 260820Z 18010KT 18/16 A2995 RMK A01 T01800160  RH  093%=      5-min Rain = 0
KMUS 260825Z 18010KT 18/16 A2995 RMK A01 T01800160  RH  093%=      5-min Rain = 0
KMUS 260830Z 19008KT 18/16 A2996 RMK A01 T01800160  RH  092%=      5-min Rain = 0
KMUS 260835Z 19005KT 18/16 A2996 RMK A01 T01780159  RH  093%=      5-min Rain = 0
KMUS 260840Z 21003KT 18/16 A2996 RMK A01 T01770158  RH  093%=      5-min Rain = 0
KMUS 260845Z 31003KT 18/16 A2997 RMK A01 T01760157  RH  093%=      5-min Rain = 0
KMUS 260850Z 35005KT 17/16 A2997 RMK A01 T01730155  RH  093%=      5-min Rain = 0
KMUS 260855Z 35005KT 17/15 A2997 RMK A01 T01700154  RH  094%=      5-min Rain = 0
KMUS 260900Z 35005KT 17/15 A2997 RMK A01 T01690154  RH  095%=      5-min Rain = 0
KMUS 260905Z 34003KT 17/15 A2998 RMK A01 T01690154  RH  095%=      5-min Rain = 0
KMUS 260910Z 20002KT 17/16 A2998 RMK A01 T01710156  RH  095%=      5-min Rain = 0
KMUS 260915Z 18005G10KT 18/16 A2997 RMK A01 T01750160  RH  095%=      5-min Rain = 0
KMUS 260920Z 18005KT 18/16 A2997 RMK A01 T01780159  RH  093%=      5-min Rain = 0
KMUS 260925Z 17005KT 18/16 A2997 RMK A01 T01750155  RH  093%=      5-min Rain = 0
KMUS 260930Z 16006KT 18/16 A2997 RMK A01 T01750157  RH  094%=      5-min Rain = 0
KMUS 260935Z 15004KT 17/16 A2998 RMK A01 T01730155  RH  093%=      5-min Rain = 0
KMUS 260940Z 14004KT 17/16 A2998 RMK A01 T01720155  RH  094%=      5-min Rain = 0
KMUS 260945Z 09003KT 17/16 A2998 RMK A01 T01720155  RH  094%=      5-min Rain = 0
KMUS 260950Z 04004KT 17/15 A2998 RMK A01 T01700153  RH  094%=      5-min Rain = 0
KMUS 260955Z 03004KT 17/15 A2998 RMK A01 T01690153  RH  095%=      5-min Rain = 0
KMUS 261000Z 05004KT 17/15 A2998 RMK A01 T01690154  RH  095%=      5-min Rain = 0
KMUS 261005Z 07004KT 17/15 A2998 RMK A01 T01680153  RH  095%=      5-min Rain = 0
KMUS 261010Z 08004KT 17/16 A2998 RMK A01 T01690155  RH  096%=      5-min Rain = 0.01
KMUS 261015Z 11005KT 17/16 A2998 RMK A01 T01700156  RH  096%=      5-min Rain = 0
KMUS 261020Z 14006KT 17/16 A2998 RMK A01 T01710157  RH  096%=      5-min Rain = 0
KMUS 261025Z 15006KT 17/16 A2998 RMK A01 T01720158  RH  096%=      5-min Rain = 0
KMUS 261030Z 14004KT 17/16 A2998 RMK A01 T01710157  RH  096%=      5-min Rain = 0
KMUS 261035Z 09004KT 17/16 A2998 RMK A01 T01690155  RH  095%=      5-min Rain = 0
KMUS 261040Z 04004KT 17/15 A2999 RMK A01 T01680154  RH  096%=      5-min Rain = 0
KMUS 261045Z 04005KT 17/15 A2998 RMK A01 T01670154  RH  096%=      5-min Rain = 0
KMUS 261050Z 06005KT 17/15 A2998 RMK A01 T01650152  RH  096%=      5-min Rain = 0
KMUS 261055Z 08006KT 17/15 A2998 RMK A01 T01650153  RH  097%=      5-min Rain = 0
KMUS 261100Z 10006KT 16/15 A2998 RMK A01 T01630151  RH  097%=      5-min Rain = 0
KMUS 261105Z 11007KT 16/15 A2998 RMK A01 T01610150  RH  097%=      5-min Rain = 0
KMUS 261110Z 11006KT 16/15 A2998 RMK A01 T01590149  RH  098%=      5-min Rain = 0
KMUS 261115Z 09005KT 16/15 A2999 RMK A01 T01580148  RH  098%=      5-min Rain = 0
KMUS 261120Z 07005KT 16/15 A2999 RMK A01 T01570147  RH  098%=      5-min Rain = 0
KMUS 261125Z 07005KT 16/15 A2999 RMK A01 T01590150  RH  099%=      5-min Rain = 0
KMUS 261130Z 07005KT 16/15 A2999 RMK A01 T01600151  RH  099%=      5-min Rain = 0
KMUS 261135Z 08005KT 16/15 A2999 RMK A01 T01590150  RH  099%=      5-min Rain = 0
KMUS 261140Z 10005KT 16/15 A2999 RMK A01 T01580149  RH  099%=      5-min Rain = 0
KMUS 261145Z 09005KT 16/15 A2999 RMK A01 T01580149  RH  099%=      5-min Rain = 0
KMUS 261150Z 10006KT 16/15 A2999 RMK A01 T01580150  RH  099%=      5-min Rain = 0
KMUS 261155Z 09005KT 16/15 A2999 RMK A01 T01600152  RH  099%=      5-min Rain = 0
KMUS 261200Z 08005KT 16/15 A2999 RMK A01 T01600153  RH  099%=      5-min Rain = 0
KMUS 261205Z 07005KT 16/15 A2999 RMK A01 T01610154  RH  100%=      5-min Rain = 0
KMUS 261210Z 07005KT 16/15 A2999 RMK A01 T01620154  RH  100%=      5-min Rain = 0
KMUS 261215Z 08006KT 16/16 A2999 RMK A01 T01630156  RH  100%=      5-min Rain = 0
KMUS 261220Z 08006KT 17/16 A2999 RMK A01 T01650157  RH  100%=      5-min Rain = 0
KMUS 261225Z 09006KT 17/16 A30 RMK A01 T01660158  RH  100%=      5-min Rain = 0
KMUS 261230Z 10007KT 17/16 A30 RMK A01 T01670159  RH  100%=      5-min Rain = 0
KMUS 261235Z 10006KT 17/16 A30 RMK A01 T01670160  RH  100%=      5-min Rain = 0
KMUS 261240Z 10006KT 17/16 A30 RMK A01 T01690161  RH  100%=      5-min Rain = 0
KMUS 261245Z 10006KT 17/16 A30 RMK A01 T01700163  RH  100%=      5-min Rain = 0
KMUS 261250Z 10006KT 17/16 A30 RMK A01 T01710164  RH  100%=      5-min Rain = 0
KMUS 261255Z 10005KT 17/17 A30 RMK A01 T01720165  RH  100%=      5-min Rain = 0
KMUS 261300Z 09005KT 17/17 A30 RMK A01 T01740166  RH  100%=      5-min Rain = 0
KMUS 261305Z 08005KT 18/17 A30 RMK A01 T01750167  RH  100%=      5-min Rain = 0
KMUS 261310Z 08006KT 18/17 A30 RMK A01 T01760168  RH  100%=      5-min Rain = 0
KMUS 261315Z 09005KT 18/17 A30 RMK A01 T01770169  RH  100%=      5-min Rain = 0
KMUS 261320Z 11005KT 18/17 A30 RMK A01 T01790171  RH  100%=      5-min Rain = 0
KMUS 261325Z 13006KT 18/18 A30 RMK A01 T01830175  RH  100%=      5-min Rain = 0
KMUS 261330Z 14006KT 19/18 A3001 RMK A01 T01850176  RH  100%=      5-min Rain = 0
KMUS 261335Z 14008KT 19/18 A3001 RMK A01 T01860177  RH  100%=      5-min Rain = 0
KMUS 261340Z 15007KT 19/18 A3001 RMK A01 T01870177  RH  099%=      5-min Rain = 0
KMUS 261345Z 15008KT 19/18 A3001 RMK A01 T01880178  RH  099%=      5-min Rain = 0
KMUS 261350Z 15007KT 19/18 A3002 RMK A01 T01890178  RH  099%=      5-min Rain = 0
KMUS 261355Z 15008KT 19/18 A3001 RMK A01 T01890178  RH  098%=      5-min Rain = 0
KMUS 261400Z 15008KT 19/18 A3001 RMK A01 T01900178  RH  098%=      5-min Rain = 0
KMUS 261405Z 15008KT 19/18 A3001 RMK A01 T01910178  RH  097%=      5-min Rain = 0
KMUS 261410Z 16010KT 19/18 A3001 RMK A01 T01930179  RH  097%=      5-min Rain = 0
KMUS 261415Z 16011G16KT 19/18 A3001 RMK A01 T01940178  RH  096%=      5-min Rain = 0
KMUS 261420Z 16009G14KT 19/18 A3002 RMK A01 T01940178  RH  095%=      5-min Rain = 0
KMUS 261425Z 16010KT 20/18 A3002 RMK A01 T01950178  RH  095%=      5-min Rain = 0
KMUS 261430Z 16009KT 20/18 A3002 RMK A01 T01960179  RH  094%=      5-min Rain = 0
KMUS 261435Z 16009KT 20/18 A3002 RMK A01 T01970179  RH  094%=      5-min Rain = 0
KMUS 261440Z 16008KT 20/18 A3002 RMK A01 T01990180  RH  094%=      5-min Rain = 0
KMUS 261445Z 16010KT 20/18 A3002 RMK A01 T01990180  RH  093%=      5-min Rain = 0
KMUS 261450Z 16009KT 20/18 A3002 RMK A01 T02000180  RH  093%=      5-min Rain = 0
KMUS 261455Z 16011KT 20/18 A3002 RMK A01 T02010180  RH  093%=      5-min Rain = 0
KMUS 261500Z 16010KT 20/18 A3002 RMK A01 T02020181  RH  092%=      5-min Rain = 0
KMUS 261505Z 15011KT 20/18 A3001 RMK A01 T02030181  RH  092%=      5-min Rain = 0
KMUS 261510Z 15011KT 20/18 A3001 RMK A01 T02030181  RH  092%=      5-min Rain = 0
KMUS 261515Z 16011KT 20/18 A3001 RMK A01 T02030180  RH  091%=      5-min Rain = 0
KMUS 261520Z 15011KT 21/18 A3001 RMK A01 T02050181  RH  091%=      5-min Rain = 0
KMUS 261525Z 15011KT 21/18 A3001 RMK A01 T02060182  RH  091%=      5-min Rain = 0
KMUS 261530Z 16011KT 21/18 A3001 RMK A01 T02070182  RH  090%=      5-min Rain = 0
KMUS 261535Z 16011KT 21/18 A3001 RMK A01 T02080182  RH  090%=      5-min Rain = 0
KMUS 261540Z 17011KT 21/18 A3001 RMK A01 T02070181  RH  089%=      5-min Rain = 0
KMUS 261545Z 16010KT 21/18 A3001 RMK A01 T02080181  RH  089%=      5-min Rain = 0
KMUS 261550Z 16013KT 21/18 A3001 RMK A01 T02080180  RH  089%=      5-min Rain = 0
KMUS 261555Z 17012KT 21/18 A3001 RMK A01 T02080180  RH  089%=      5-min Rain = 0
KMUS 261600Z 17011G16KT 21/18 A3001 RMK A01 T02080181  RH  089%=      5-min Rain = 0
KMUS 261605Z 17011KT 21/18 A3001 RMK A01 T02080181  RH  089%=      5-min Rain = 0
KMUS 261610Z 16010G15KT 21/18 A3001 RMK A01 T02100182  RH  089%=      5-min Rain = 0
KMUS 261615Z 16011KT 21/18 A3001 RMK A01 T02100182  RH  088%=      5-min Rain = 0
KMUS 261620Z 16010KT 21/18 A3001 RMK A01 T02120183  RH  088%=      5-min Rain = 0
KMUS 261625Z 17011KT 21/18 A3001 RMK A01 T02130183  RH  087%=      5-min Rain = 0
KMUS 261630Z 17011KT 21/18 A3001 RMK A01 T02140183  RH  087%=      5-min Rain = 0
KMUS 261635Z 17012KT 22/18 A3001 RMK A01 T02150183  RH  087%=      5-min Rain = 0
KMUS 261640Z 17015KT 22/18 A3001 RMK A01 T02160182  RH  085%=      5-min Rain = 0
KMUS 261645Z 16013G19KT 22/18 A3001 RMK A01 T02190183  RH  085%=      5-min Rain = 0
KMUS 261650Z 16014KT 22/18 A30 RMK A01 T02190183  RH  084%=      5-min Rain = 0
KMUS 261655Z 17014KT 22/18 A30 RMK A01 T02200182  RH  083%=      5-min Rain = 0
KMUS 261700Z 17014KT 22/18 A3001 RMK A01 T02200182  RH  083%=      5-min Rain = 0
KMUS 261705Z 17014G19KT 22/18 A3001 RMK A01 T02190182  RH  084%=      5-min Rain = 0
KMUS 261710Z 17014KT 22/18 A30 RMK A01 T02220182  RH  083%=      5-min Rain = 0
KMUS 261715Z 17013G18KT 22/18 A30 RMK A01 T02240184  RH  082%=      5-min Rain = 0
KMUS 261720Z 17013G18KT 23/18 A30 RMK A01 T02250183  RH  081%=      5-min Rain = 0
KMUS 261725Z 17013G18KT 23/18 A30 RMK A01 T02250183  RH  081%=      5-min Rain = 0
KMUS 261730Z 17014KT 22/18 A30 RMK A01 T02240181  RH  081%=      5-min Rain = 0
KMUS 261735Z 16013KT 22/18 A30 RMK A01 T02230182  RH  082%=      5-min Rain = 0
KMUS 261740Z 17014KT 22/18 A30 RMK A01 T02240182  RH  081%=      5-min Rain = 0
KMUS 261745Z 16012KT 22/18 A30 RMK A01 T02240182  RH  081%=      5-min Rain = 0
KMUS 261750Z 17015KT 23/18 A2999 RMK A01 T02250181  RH  080%=      5-min Rain = 0
KMUS 261755Z 17013KT 23/18 A2999 RMK A01 T02250181  RH  080%=      5-min Rain = 0
KMUS 261800Z 17012KT 22/18 A2999 RMK A01 T02240181  RH  081%=      5-min Rain = 0
KMUS 261805Z 17014KT 22/18 A30 RMK A01 T02230181  RH  081%=      5-min Rain = 0
KMUS 261810Z 18016G21KT 22/18 A3002 RMK A01 T02220180  RH  082%=      5-min Rain = 0
KMUS 261815Z 19015G20KT 22/18 A3003 RMK A01 T02200179  RH  082%=      5-min Rain = 0
KMUS 261820Z 19012G18KT 22/18 A3002 RMK A01 T02190180  RH  083%=      5-min Rain = 0
KMUS 261825Z 18011KT 22/18 A3001 RMK A01 T02150182  RH  086%=      5-min Rain = 0.01
KMUS 261830Z 15009KT 21/18 A2999 RMK A01 T02110183  RH  088%=      5-min Rain = 0
KMUS 261835Z 16014G19KT 21/18 A3001 RMK A01 T02100184  RH  090%=      5-min Rain = 0
KMUS 261840Z 16013KT 21/19 A3001 RMK A01 T02090185  RH  091%=      5-min Rain = 0
KMUS 261845Z 16016KT 21/19 A3001 RMK A01 T02080185  RH  091%=      5-min Rain = 0
KMUS 261850Z 16015KT 21/19 A3001 RMK A01 T02090185  RH  091%=      5-min Rain = 0
KMUS 261855Z 15014KT 21/19 A30 RMK A01 T02090185  RH  090%=      5-min Rain = 0
KMUS 261900Z 14012KT 21/19 A2998 RMK A01 T02100185  RH  091%=      5-min Rain = 0
KMUS 261905Z 13009KT 21/19 A2996 RMK A01 T02100186  RH  091%=      5-min Rain = 0
KMUS 261910Z 14009KT 21/19 A2996 RMK A01 T02110187  RH  091%=      5-min Rain = 0
KMUS 261915Z 16009KT 21/19 A2997 RMK A01 T02130187  RH  090%=      5-min Rain = 0
KMUS 261920Z 16011G18KT 21/19 A2998 RMK A01 T02140189  RH  090%=      5-min Rain = 0
KMUS 261925Z 16013KT 21/19 A2998 RMK A01 T02140189  RH  090%=      5-min Rain = 0
KMUS 261930Z 16014G22KT 22/19 A2998 RMK A01 T02160189  RH  090%=      5-min Rain = 0
KMUS 261935Z 17024G33KT 22/18 A2999 RMK A01 T02190181  RH  083%=      5-min Rain = 0
KMUS 261940Z 16023G33KT 22/18 A2999 RMK A01 T02220184  RH  083%=      5-min Rain = 0
KMUS 261945Z 15020G27KT 22/19 A2998 RMK A01 T02230187  RH  085%=      5-min Rain = 0
KMUS 261950Z 16019G26KT 23/19 A2997 RMK A01 T02250187  RH  083%=      5-min Rain = 0
KMUS 261955Z 17014KT 23/19 A2997 RMK A01 T02270185  RH  081%=      5-min Rain = 0
KMUS 262000Z 17014G19KT 23/18 A2996 RMK A01 T02290182  RH  079%=      5-min Rain = 0
KMUS 262005Z 17014G19KT 23/18 A2995 RMK A01 T02280178  RH  078%=      5-min Rain = 0
KMUS 262010Z 18012KT 23/18 A2995 RMK A01 T02260178  RH  078%=      5-min Rain = 0
KMUS 262015Z 18012KT 23/18 A2994 RMK A01 T02250178  RH  078%=      5-min Rain = 0
KMUS 262020Z 16013KT 23/18 A2993 RMK A01 T02260176  RH  077%=      5-min Rain = 0
KMUS 262025Z 15015G20KT 23/17 A2993 RMK A01 T02280172  RH  074%=      5-min Rain = 0
KMUS 262030Z 15015KT 23/17 A2993 RMK A01 T02300173  RH  074%=      5-min Rain = 0
KMUS 262035Z 15017G24KT 23/17 A2993 RMK A01 T02340170  RH  071%=      5-min Rain = 0
KMUS 262040Z 14019G25KT 24/18 A2993 RMK A01 T02350177  RH  074%=      5-min Rain = 0
KMUS 262045Z 15016G21KT 23/18 A2992 RMK A01 T02330183  RH  077%=      5-min Rain = 0
KMUS 262050Z 15014G19KT 23/19 A2991 RMK A01 T02310186  RH  080%=      5-min Rain = 0
KMUS 262055Z 16013KT 23/18 A2991 RMK A01 T02320184  RH  079%=      5-min Rain = 0
KMUS 262100Z 16012KT 23/19 A2991 RMK A01 T02340186  RH  078%=      5-min Rain = 0
KMUS 262105Z 15013KT 24/18 A2991 RMK A01 T02400184  RH  075%=      5-min Rain = 0
KMUS 262110Z 15017KT 24/18 A2991 RMK A01 T02440183  RH  072%=      5-min Rain = 0
KMUS 262115Z 15016G24KT 25/19 A2991 RMK A01 T02510185  RH  070%=      5-min Rain = 0
KMUS 262120Z 14022G28KT 25/18 A299 RMK A01 T02460179  RH  070%=      5-min Rain = 0
KMUS 262125Z 15017G22KT 24/19 A299 RMK A01 T02390188  RH  077%=      5-min Rain = 0
KMUS 262130Z 14016G22KT 24/19 A2989 RMK A01 T02380188  RH  078%=      5-min Rain = 0
KMUS 262135Z 14015KT 24/19 A2989 RMK A01 T02390189  RH  078%=      5-min Rain = 0
KMUS 262140Z 15015KT 24/19 A2989 RMK A01 T02440191  RH  077%=      5-min Rain = 0
KMUS 262145Z 15016G22KT 25/19 A2989 RMK A01 T02490189  RH  073%=      5-min Rain = 0
KMUS 262150Z 15019KT 25/19 A2989 RMK A01 T02480189  RH  074%=      5-min Rain = 0
KMUS 262155Z 15020G26KT 25/19 A2989 RMK A01 T02470189  RH  074%=      5-min Rain = 0
KMUS 262200Z 15020G26KT 25/19 A2989 RMK A01 T02470188  RH  074%=      5-min Rain = 0
KMUS 262205Z 16020G25KT 25/19 A2989 RMK A01 T02470186  RH  073%=      5-min Rain = 0
KMUS 262210Z 16019G25KT 25/19 A299 RMK A01 T02500190  RH  073%=      5-min Rain = 0
KMUS 262215Z 14021G26KT 25/19 A299 RMK A01 T02490191  RH  074%=      5-min Rain = 0
KMUS 262220Z 15022G29KT 25/19 A299 RMK A01 T02460190  RH  075%=      5-min Rain = 0
KMUS 262225Z 15022G30KT 25/19 A299 RMK A01 T02460188  RH  074%=      5-min Rain = 0
KMUS 262230Z 15024G30KT 24/19 A299 RMK A01 T02410188  RH  076%=      5-min Rain = 0
KMUS 262235Z 15023G30KT 24/19 A299 RMK A01 T02380188  RH  078%=      5-min Rain = 0
KMUS 262240Z 16022G28KT 24/19 A2989 RMK A01 T02440187  RH  075%=      5-min Rain = 0
KMUS 262245Z 15023G29KT 25/19 A2989 RMK A01 T02470188  RH  074%=      5-min Rain = 0
KMUS 262250Z 15024G30KT 25/19 A2989 RMK A01 T02450186  RH  074%=      5-min Rain = 0
KMUS 262255Z 15022G30KT 25/19 A2989 RMK A01 T02490189  RH  073%=      5-min Rain = 0
KMUS 262300Z 15022G29KT 25/19 A2989 RMK A01 T02490187  RH  072%=      5-min Rain = 0
KMUS 262305Z 15024G30KT 25/19 A2989 RMK A01 T02450187  RH  074%=      5-min Rain = 0
KMUS 262310Z 15022G29KT 25/19 A2988 RMK A01 T02470186  RH  073%=      5-min Rain = 0
KMUS 262315Z 16024G31KT 25/18 A2988 RMK A01 T02470184  RH  071%=      5-min Rain = 0
KMUS 262320Z 16024G34KT 25/18 A2988 RMK A01 T02460181  RH  071%=      5-min Rain = 0
KMUS 262325Z 15024G30KT 24/18 A2987 RMK A01 T02430181  RH  072%=      5-min Rain = 0
KMUS 262330Z 16024G30KT 25/18 A2987 RMK A01 T02470182  RH  071%=      5-min Rain = 0
KMUS 262335Z 16024G29KT 25/18 A2986 RMK A01 T02460177  RH  069%=      5-min Rain = 0
KMUS 262340Z 16024G30KT 24/18 A2986 RMK A01 T02420176  RH  070%=      5-min Rain = 0
KMUS 262345Z 16021G28KT 24/18 A2985 RMK A01 T02430176  RH  070%=      5-min Rain = 0
KMUS 262350Z 15023G29KT 24/18 A2985 RMK A01 T02440175  RH  069%=      5-min Rain = 0
KMUS 262355Z 16026G31KT 24/17 A2985 RMK A01 T02420174  RH  069%=      5-min Rain = 0
KMUS 270000Z 15024G32KT 24/17 A2984 RMK A01 T02380173  RH  070%=      5-min Rain = 0
KMUS 270005Z 15024G33KT 24/17 A2983 RMK A01 T02350171  RH  071%=      5-min Rain = 0
KMUS 270010Z 15025G31KT 23/17 A2981 RMK A01 T02340170  RH  071%=      5-min Rain = 0
KMUS 270015Z 15025G35KT 23/17 A2981 RMK A01 T02330170  RH  071%=      5-min Rain = 0
KMUS 270020Z 15023G32KT 23/17 A2981 RMK A01 T02320174  RH  074%=      5-min Rain = 0
KMUS 270025Z 15021G30KT 23/17 A2981 RMK A01 T02300174  RH  075%=      5-min Rain = 0
KMUS 270030Z 15023G32KT 23/17 A2982 RMK A01 T02300173  RH  074%=      5-min Rain = 0
KMUS 270035Z 15020G27KT 23/17 A2982 RMK A01 T02290173  RH  074%=      5-min Rain = 0
KMUS 270040Z 15017G23KT 23/18 A2983 RMK A01 T02290175  RH  075%=      5-min Rain = 0
KMUS 270045Z 15017G22KT 23/18 A2984 RMK A01 T02280176  RH  076%=      5-min Rain = 0
KMUS 270050Z 16021G28KT 23/18 A2984 RMK A01 T02280175  RH  075%=      5-min Rain = 0
KMUS 270055Z 16018G25KT 23/18 A2985 RMK A01 T02280175  RH  076%=      5-min Rain = 0
KMUS 270100Z 15018G26KT 23/18 A2986 RMK A01 T02280175  RH  076%=      5-min Rain = 0
KMUS 270105Z 17016G25KT 23/18 A2987 RMK A01 T02260177  RH  078%=      5-min Rain = 0
KMUS 270110Z 17020G31KT 23/14 A2986 RMK A01 T02260140  RH  062%=      5-min Rain = 0
KMUS 270115Z 21018G27KT 24/11 A2986 RMK A01 T02380109  RH  047%=      5-min Rain = 0
KMUS 270120Z 16016G24KT 23/16 A2985 RMK A01 T02310161  RH  068%=      5-min Rain = 0
KMUS 270125Z 14015G21KT 23/17 A2984 RMK A01 T02280173  RH  075%=      5-min Rain = 0
KMUS 270130Z 14012KT 23/18 A2984 RMK A01 T02260175  RH  077%=      5-min Rain = 0
KMUS 270135Z 13015G20KT 22/18 A2984 RMK A01 T02230176  RH  079%=      5-min Rain = 0
KMUS 270140Z 14015G21KT 22/18 A2984 RMK A01 T02220176  RH  079%=      5-min Rain = 0
KMUS 270145Z 15017G22KT 22/18 A2984 RMK A01 T02220176  RH  079%=      5-min Rain = 0
KMUS 270150Z 15017G23KT 22/18 A2985 RMK A01 T02200177  RH  081%=      5-min Rain = 0
KMUS 270155Z 15014G19KT 22/18 A2986 RMK A01 T02170178  RH  083%=      5-min Rain = 0
KMUS 270200Z 15012G17KT 22/18 A2987 RMK A01 T02160178  RH  083%=      5-min Rain = 0
KMUS 270205Z 14011G17KT 22/18 A2986 RMK A01 T02150177  RH  083%=      5-min Rain = 0
KMUS 270210Z 13008KT 21/18 A2987 RMK A01 T02140177  RH  084%=      5-min Rain = 0
KMUS 270215Z 13008KT 21/18 A2987 RMK A01 T02130177  RH  084%=      5-min Rain = 0
KMUS 270220Z 16004G11KT 21/18 A2988 RMK A01 T02140177  RH  084%=      5-min Rain = 0.01
KMUS 270225Z 27007KT 21/18 A299 RMK A01 T02120179  RH  086%=      5-min Rain = 0.03
KMUS 270230Z 30009KT 21/18 A299 RMK A01 T02080181  RH  090%=      5-min Rain = 0.02
KMUS 270235Z 31012KT 21/18 A299 RMK A01 T02050183  RH  092%=      5-min Rain = 0.11
KMUS 270240Z 31006G11KT 20/18 A2991 RMK A01 T02020183  RH  094%=      5-min Rain = 0
KMUS 270245Z 35009G16KT 20/18 A299 RMK A01 T02010182  RH  094%=      5-min Rain = 0
KMUS 270250Z 30007G14KT 20/18 A299 RMK A01 T02020181  RH  093%=      5-min Rain = 0
KMUS 270255Z 34002KT 20/18 A2989 RMK A01 T02030181  RH  092%=      5-min Rain = 0
KMUS 270300Z 16002KT 20/18 A2989 RMK A01 T02040181  RH  092%=      5-min Rain = 0
KMUS 270305Z 17005KT 21/18 A2989 RMK A01 T02080182  RH  090%=      5-min Rain = 0
KMUS 270310Z 17007KT 21/18 A2989 RMK A01 T02090181  RH  088%=      5-min Rain = 0
KMUS 270315Z 16007G13KT 21/18 A2989 RMK A01 T02070180  RH  089%=      5-min Rain = 0
KMUS 270320Z 16010G17KT 21/18 A2989 RMK A01 T02060180  RH  089%=      5-min Rain = 0
KMUS 270325Z 17011KT 21/18 A2989 RMK A01 T02060179  RH  089%=      5-min Rain = 0
KMUS 270330Z 16012KT 21/18 A2989 RMK A01 T02050179  RH  089%=      5-min Rain = 0
KMUS 270335Z 16012KT 21/18 A2989 RMK A01 T02050179  RH  089%=      5-min Rain = 0
KMUS 270340Z 16013KT 21/18 A2989 RMK A01 T02050179  RH  090%=      5-min Rain = 0
KMUS 270345Z 16013G18KT 21/18 A2989 RMK A01 T02050179  RH  090%=      5-min Rain = 0
KMUS 270350Z 17014G20KT 20/18 A2989 RMK A01 T02040179  RH  090%=      5-min Rain = 0
KMUS 270355Z 17014G19KT 21/18 A299 RMK A01 T02050179  RH  090%=      5-min Rain = 0
KMUS 270400Z 17014G20KT 21/18 A299 RMK A01 T02050179  RH  089%=      5-min Rain = 0
KMUS 270405Z 17013KT 21/18 A299 RMK A01 T02050178  RH  089%=      5-min Rain = 0
KMUS 270410Z 16012KT 20/18 A299 RMK A01 T02030178  RH  090%=      5-min Rain = 0
KMUS 270415Z 17012KT 20/18 A299 RMK A01 T02030178  RH  091%=      5-min Rain = 0
KMUS 270420Z 17013KT 20/18 A299 RMK A01 T02020178  RH  091%=      5-min Rain = 0
KMUS 270425Z 17014KT 20/18 A299 RMK A01 T02030178  RH  090%=      5-min Rain = 0
KMUS 270430Z 17013KT 20/18 A299 RMK A01 T02030178  RH  090%=      5-min Rain = 0
KMUS 270435Z 17013G18KT 20/18 A299 RMK A01 T02020178  RH  090%=      5-min Rain = 0
KMUS 270440Z 18013KT 20/18 A2991 RMK A01 T02020178  RH  090%=      5-min Rain = 0
KMUS 270445Z 18013KT 20/18 A2991 RMK A01 T02020177  RH  090%=      5-min Rain = 0
KMUS 270450Z 18014G19KT 20/18 A299 RMK A01 T02020177  RH  090%=      5-min Rain = 0
KMUS 270455Z 18012KT 20/18 A299 RMK A01 T02020177  RH  090%=      5-min Rain = 0

Page generated in 0.0101 seconds.